メインページ
METAR-TAF:

METAR-TAF

空港 :

パース空港

パース, オーストラリア

緯度: 31-56S, 経度: 115-57E, 海抜: 20m

現時点の気象観測

当レポートは17分前の14:00(UTC)に作成
の風 8kt
気温 18°C
湿度 83%
気圧 1013 hPa
視程10km以上
高度3000ftの雲はほとんどない
近辺でにわか雨,

METAR: YPPH 241400Z 01008KT 9999 VCSH FEW030 18/15 Q1013 RF00.0/000.0

時間: 22:17 (14:17 UTC)

予報

当レポートは2時間57分前の11:20(UTC)に作成
予報は24日の 12時(UTC)から 25日の 18時(UTC)まで有効
北/北東の風 8kt
視程10km以上
1,500メートル以下は雲なし、積乱雲なし
24日の 1400時(UTC)から
の風 8kt
視程10km以上
高度2500ftの雲は散在している
弱いにわか雨
25日の 0200時(UTC)から
西/南西の風 14kt
視程10km以上
高度3500ftの千切れ雲あり
弱いにわか雨
25日の 1300時(UTC)から
の風 6kt
視程: 5000m
高度4000ftの雲は散在している
高度1500ftの千切れ雲あり
高度3500ftの雲はほとんどない, 塔状積雲.
高度2000ftの雲は散在している
にわか雨, にわか雨,

TAF: YPPH 241120Z 2412/2518 02008KT CAVOK FM241400 01008KT 9999 -SHRA SCT025 FM250200 25014KT 9999 -SHRA BKN035 FM251300 08006KT 9999 NSW SCT040 INTER 2418/2422 4000 SHRA BKN015 FEW035TCU INTER 2506/2510 5000 SHRA SCT020

4,000以上の空港の気象観測と天気予報(METAR報とTAF報)

利用可能な観測所は地図上に黄色い丸と赤い丸で示す。

丸の上にカーソルを重ねると観測所名を参照できる。

次にクリックすると気象観測と天気予報を参照できる。

マップの切り替え:黒色「×」印の緑ボタンをクリックして拡大、「-」印の緑ボタンをクリックして縮小、緑色の三角印をクリックして隣りの地図に切り替え


METAR-TAF: